Time;durP1;ratioP1;P1;durP2;ratioP2;P2;SDS_P1;SDS_P2;PMS_P1;PMS_P2;Temp;Humidity;BMP_temperature;BMP_pressure;BME280_temperature;BME280_humidity;BME280_pressure;Samples;Min_cycle;Max_cycle;Signal;HPM_P1;HPM_P2
2023/08/31 00:02:26;;;;;;;;;4.00;4.00;;;;;-143.90;91.40;74078.72;4899053;28;101923;-75
2023/08/31 00:04:56;;;;;;;;;3.00;2.00;;;;;-143.90;91.41;74080.78;4890985;28;102098;-74
2023/08/31 00:07:22;;;;;;;;;2.00;1.33;;;;;-143.90;91.42;74078.72;4894630;28;102155;-74
2023/08/31 00:09:50;;;;;;;;;1.00;1.00;;;;;-143.90;91.82;74080.78;4890837;28;105597;-74
2023/08/31 00:12:17;;;;;;;;;2.00;2.00;;;;;-143.90;92.01;74086.97;4889584;28;102120;-73
2023/08/31 00:14:43;;;;;;;;;3.00;2.33;;;;;-143.90;91.63;74080.78;4884384;28;102677;-74
2023/08/31 00:17:10;;;;;;;;;1.00;1.00;;;;;-143.90;91.65;74089.06;4888957;28;104990;-74
2023/08/31 00:19:36;;;;;;;;;0.67;0.67;;;;;-143.90;91.50;74080.78;4893015;28;103374;-75
2023/08/31 00:22:03;;;;;;;;;3.00;2.00;;;;;-143.90;91.38;74084.91;4911639;28;102119;-74
2023/08/31 00:24:33;;;;;;;;;3.00;3.00;;;;;-143.90;91.62;74080.78;4892763;28;103844;-74
2023/08/31 00:27:00;;;;;;;;;1.67;1.67;;;;;-143.90;92.08;74084.91;4909917;28;102076;-74
2023/08/31 00:29:27;;;;;;;;;2.00;2.00;;;;;-143.90;91.77;74086.97;4908536;28;108561;-74
2023/08/31 00:31:53;;;;;;;;;1.00;1.00;;;;;-143.90;91.75;74080.78;4910078;28;102078;-74
2023/08/31 00:34:20;;;;;;;;;2.00;2.00;;;;;-143.90;91.97;74089.06;4910022;28;102406;-74
2023/08/31 00:36:48;;;;;;;;;2.33;2.33;;;;;-143.90;91.75;74086.97;4911547;28;102149;-74
2023/08/31 00:39:17;;;;;;;;;3.33;3.33;;;;;-143.90;92.03;74082.84;4907537;28;104253;-74
2023/08/31 00:41:45;;;;;;;;;1.33;1.00;;;;;-143.90;91.64;74082.84;4897804;28;102294;-74
2023/08/31 00:44:12;;;;;;;;;3.33;3.00;;;;;-143.90;91.75;74089.06;4907835;28;102366;-74
2023/08/31 00:46:40;;;;;;;;;3.67;3.67;;;;;-143.90;91.87;74089.06;4909227;28;102365;-75
2023/08/31 00:49:08;;;;;;;;;4.00;4.00;;;;;-143.90;91.33;74084.91;4885799;28;103960;-74
2023/08/31 00:51:35;;;;;;;;;2.00;2.00;;;;;-143.90;91.56;74082.84;4909852;28;102702;-74
2023/08/31 00:54:02;;;;;;;;;2.00;2.00;;;;;-143.90;91.71;74093.19;4910681;28;102094;-74
2023/08/31 00:56:29;;;;;;;;;3.00;3.00;;;;;-143.90;92.02;74089.06;4901647;28;102629;-74
2023/08/31 00:58:56;;;;;;;;;3.00;3.00;;;;;-143.90;92.15;74091.13;4905749;28;104399;-75
2023/08/31 01:01:37;;;;;;;;;4.00;4.00;;;;;-143.90;92.43;74103.53;4909127;28;102375;-73
2023/08/31 01:04:22;;;;;;;;;3.33;3.33;;;;;-143.90;92.40;74097.31;4885445;28;103145;-75
2023/08/31 01:07:11;;;;;;;;;3.00;3.00;;;;;-143.90;92.62;74101.44;4907327;28;102642;-75
2023/08/31 01:10:01;;;;;;;;;6.00;5.00;;;;;-143.90;92.15;74109.72;4902759;28;108508;-74
2023/08/31 01:12:36;;;;;;;;;2.00;2.00;;;;;-143.90;92.49;74103.53;4910670;28;102551;-75
2023/08/31 01:15:07;;;;;;;;;4.67;4.67;;;;;-143.90;92.25;74101.44;4901995;28;103424;-75
2023/08/31 01:17:43;;;;;;;;;3.00;2.00;;;;;-143.90;92.41;74105.59;4905543;28;102340;-74
2023/08/31 01:20:11;;;;;;;;;3.33;3.00;;;;;-143.90;92.42;74097.31;4905930;28;104752;-74
2023/08/31 01:23:03;;;;;;;;;3.00;3.00;;;;;-143.90;92.52;74115.91;4900528;28;103146;-74
2023/08/31 01:25:32;;;;;;;;;6.25;6.00;;;;;-143.90;92.57;74105.59;4890720;28;102043;-75
2023/08/31 01:27:59;;;;;;;;;6.50;5.50;;;;;-143.90;92.99;74120.06;4892940;28;103324;-74
2023/08/31 01:30:30;;;;;;;;;5.33;4.33;;;;;-143.90;92.71;74118.00;4906187;28;107376;-74
2023/08/31 01:32:58;;;;;;;;;4.00;4.00;;;;;-143.90;92.68;74120.06;4907808;28;103504;-74
2023/08/31 01:35:26;;;;;;;;;4.00;4.00;;;;;-143.90;92.55;74113.84;4905982;28;103562;-73
2023/08/31 01:38:03;;;;;;;;;5.00;3.67;;;;;-143.90;92.65;74118.00;4911123;28;101959;-74
2023/08/31 01:40:42;;;;;;;;;3.33;3.33;;;;;-143.90;93.13;74120.06;4911655;28;110257;-74
2023/08/31 01:43:11;;;;;;;;;4.33;4.00;;;;;-143.90;92.78;74118.00;4909530;28;103602;-75
2023/08/31 01:45:39;;;;;;;;;4.00;3.00;;;;;-143.90;93.04;74118.00;4897509;28;103000;-74
2023/08/31 01:48:06;;;;;;;;;4.67;4.00;;;;;-143.90;92.81;74113.84;4910274;28;102370;-74
2023/08/31 01:50:32;;;;;;;;;3.00;3.00;;;;;-143.90;92.85;74109.72;4910148;28;104193;-74
2023/08/31 01:52:59;;;;;;;;;2.67;2.67;;;;;-143.90;92.75;74109.72;4890957;28;102380;-74
2023/08/31 01:55:26;;;;;;;;;4.00;4.00;;;;;-143.90;93.27;74113.84;4915113;28;102149;-75
2023/08/31 01:57:52;;;;;;;;;6.33;5.00;;;;;-143.90;92.84;74113.84;4917320;28;102025;-75
2023/08/31 02:00:19;;;;;;;;;4.00;3.00;;;;;-143.90;92.58;74128.31;4913890;28;103132;-75
2023/08/31 02:02:46;;;;;;;;;5.50;5.50;;;;;-143.90;92.94;74122.13;4900422;28;102314;-74
2023/08/31 02:05:13;;;;;;;;;6.00;6.00;;;;;-143.90;93.28;74113.84;4907182;28;102160;-74
2023/08/31 02:07:40;;;;;;;;;5.50;5.00;;;;;-143.90;93.39;74111.78;4893390;28;102013;-74
2023/08/31 02:10:07;;;;;;;;;4.50;4.50;;;;;-143.90;93.15;74111.78;4875490;28;104366;-75
2023/08/31 02:12:36;;;;;;;;;4.00;4.00;;;;;-143.90;92.33;74118.00;4913128;28;101966;-75
2023/08/31 02:15:05;;;;;;;;;4.00;3.00;;;;;-143.90;92.65;74118.00;4910458;28;102384;-74
2023/08/31 02:17:33;;;;;;;;;4.67;2.67;;;;;-143.90;92.47;74126.25;4911230;28;105002;-75
2023/08/31 02:20:01;;;;;;;;;3.00;3.00;;;;;-143.90;92.80;74130.38;4905775;28;108723;-75
2023/08/31 02:22:30;;;;;;;;;3.00;2.33;;;;;-143.90;93.01;74138.66;4897456;28;102128;-74
2023/08/31 02:24:57;;;;;;;;;3.00;3.00;;;;;-143.90;93.16;74132.44;4895643;28;101970;-75
2023/08/31 02:27:24;;;;;;;;;3.00;3.00;;;;;-143.90;92.96;74138.66;4893781;28;103507;-74
2023/08/31 02:29:51;;;;;;;;;6.00;5.50;;;;;-143.90;93.09;74136.59;4881717;28;104092;-75
2023/08/31 02:32:17;;;;;;;;;1.67;1.67;;;;;-143.90;92.66;74138.66;4892799;28;102018;-74
2023/08/31 02:34:44;;;;;;;;;2.33;2.33;;;;;-143.90;92.63;74140.72;4878860;28;102180;-74
2023/08/31 02:37:10;;;;;;;;;2.33;2.33;;;;;-143.90;92.94;74151.06;4897003;28;102477;-74
2023/08/31 02:39:37;;;;;;;;;4.00;4.00;;;;;-143.90;93.31;74146.91;4892687;28;104071;-74
2023/08/31 02:42:05;;;;;;;;;3.33;2.67;;;;;-143.90;93.06;74146.91;4889396;28;102130;-74
2023/08/31 02:44:32;;;;;;;;;3.33;3.00;;;;;-143.90;93.12;74153.13;4878593;28;102203;-73
2023/08/31 02:46:58;;;;;;;;;2.67;2.00;;;;;-143.90;92.83;74155.19;4879863;28;102530;-75
2023/08/31 02:49:25;;;;;;;;;3.67;2.33;;;;;-143.90;92.90;74155.19;4890902;28;105729;-75
2023/08/31 02:51:52;;;;;;;;;4.67;4.00;;;;;-143.90;93.08;74153.13;4892598;28;108177;-75
2023/08/31 02:54:19;;;;;;;;;6.25;6.00;;;;;-143.90;93.31;74142.78;4894388;28;102831;-74
2023/08/31 02:56:46;;;;;;;;;4.50;4.25;;;;;-143.90;93.33;74142.78;4889895;28;102078;-75
2023/08/31 02:59:12;;;;;;;;;5.33;4.00;;;;;-143.90;93.23;74151.06;4893432;28;103391;-75
2023/08/31 03:01:39;;;;;;;;;4.00;4.00;;;;;-143.90;93.08;74155.19;4894185;28;102333;-74
2023/08/31 03:04:06;;;;;;;;;2.00;2.00;;;;;-143.90;93.11;74163.47;4895220;28;102762;-74
2023/08/31 03:06:33;;;;;;;;;4.00;4.00;;;;;-143.90;93.31;74175.84;4881191;28;103528;-74
2023/08/31 03:08:59;;;;;;;;;4.00;3.67;;;;;-143.90;93.39;74171.72;4893162;28;105678;-73
2023/08/31 03:11:26;;;;;;;;;2.00;2.00;;;;;-143.90;93.57;74175.84;4877436;28;104435;-74
2023/08/31 03:13:52;;;;;;;;;4.75;4.75;;;;;-143.90;93.76;74167.59;4874604;28;102127;-74
2023/08/31 03:16:19;;;;;;;;;2.00;2.00;;;;;-143.90;94.04;74169.66;4879155;28;102066;-74
2023/08/31 03:18:46;;;;;;;;;3.00;3.00;;;;;-143.90;94.00;74169.66;4894237;28;104170;-74
2023/08/31 03:21:12;;;;;;;;;3.33;2.33;;;;;-143.90;93.92;74171.72;4895190;28;102309;-73
2023/08/31 03:23:39;;;;;;;;;4.33;3.67;;;;;-143.90;94.05;74159.31;4875454;28;102529;-74
2023/08/31 03:26:09;;;;;;;;;5.00;4.00;;;;;-143.90;93.78;74167.59;4899132;28;102429;-74
2023/08/31 03:28:38;;;;;;;;;2.00;2.00;;;;;-143.90;93.67;74159.31;4895114;28;108157;-74
2023/08/31 03:31:05;;;;;;;;;2.33;2.33;;;;;-143.90;93.78;74165.53;4892949;28;102691;-74
2023/08/31 03:33:32;;;;;;;;;3.00;1.00;;;;;-143.90;93.49;74163.47;4893297;28;102290;-73
2023/08/31 03:36:04;;;;;;;;;2.00;2.00;;;;;-143.90;93.31;74165.53;4876012;28;102087;-75
2023/08/31 03:38:31;;;;;;;;;2.00;2.00;;;;;-143.90;93.05;74175.84;4892535;28;108515;-75
2023/08/31 03:40:58;;;;;;;;;4.00;4.00;;;;;-143.90;93.61;74177.94;4869551;28;102401;-74
2023/08/31 03:43:24;;;;;;;;;2.67;2.67;;;;;-143.90;93.32;74173.78;4888059;28;102676;-74
2023/08/31 03:45:58;;;;;;;;;3.67;3.67;;;;;-143.90;93.45;74177.94;4893450;28;102087;-74
2023/08/31 03:48:24;;;;;;;;;4.67;4.00;;;;;-143.90;93.82;74175.84;4891818;28;104045;-74
2023/08/31 03:50:55;;;;;;;;;3.00;2.00;;;;;-143.90;94.18;74180.00;4894035;28;102305;-74
2023/08/31 03:53:22;;;;;;;;;2.33;2.00;;;;;-143.90;93.90;74184.13;4887053;28;102316;-75
2023/08/31 03:55:49;;;;;;;;;4.00;4.00;;;;;-143.90;93.60;74188.25;4891291;28;102326;-75
2023/08/31 03:58:16;;;;;;;;;2.00;2.00;;;;;-143.90;93.95;74188.25;4889614;28;104132;-74
2023/08/31 04:00:43;;;;;;;;;3.00;3.00;;;;;-143.90;93.72;74194.47;4892928;28;102485;-75
2023/08/31 04:03:09;;;;;;;;;4.75;4.00;;;;;-143.90;93.73;74192.41;4888945;28;102358;-75
2023/08/31 04:05:37;;;;;;;;;2.67;2.33;;;;;-143.90;93.82;74184.13;4892356;28;102387;-75
2023/08/31 04:08:04;;;;;;;;;3.00;3.00;;;;;-143.90;93.87;74192.41;4890541;28;108596;-74
2023/08/31 04:10:31;;;;;;;;;3.00;3.00;;;;;-143.90;93.47;74202.72;4890317;28;102073;-74
2023/08/31 04:12:58;;;;;;;;;3.33;3.33;;;;;-143.90;93.89;74200.66;4889979;28;102737;-73
2023/08/31 04:15:25;;;;;;;;;2.67;2.67;;;;;-143.90;93.79;74204.78;4888014;28;102131;-76
2023/08/31 04:17:52;;;;;;;;;2.33;2.33;;;;;-143.90;93.62;74200.66;4889857;28;105085;-75
2023/08/31 04:20:19;;;;;;;;;4.00;4.00;;;;;-143.90;93.91;74202.72;4898910;28;102948;-74
2023/08/31 04:22:46;;;;;;;;;4.00;4.00;;;;;-143.90;93.84;74204.78;4901399;28;103907;-74
2023/08/31 04:25:12;;;;;;;;;3.00;3.00;;;;;-143.90;93.82;74208.94;4905988;28;103618;-74
2023/08/31 04:27:40;;;;;;;;;4.00;4.00;;;;;-143.90;94.25;74200.66;4901844;28;104285;-75
2023/08/31 04:30:07;;;;;;;;;4.00;4.00;;;;;-143.90;94.17;74200.66;4898983;28;104303;-75
2023/08/31 04:32:35;;;;;;;;;3.00;3.00;;;;;-143.90;94.33;74200.66;4908703;28;104031;-73
2023/08/31 04:35:04;;;;;;;;;3.00;3.00;;;;;-143.90;94.34;74206.88;4911874;28;102756;-75
2023/08/31 04:37:32;;;;;;;;;4.00;3.33;;;;;-143.90;94.14;74208.94;4912235;28;105458;-74
2023/08/31 04:39:59;;;;;;;;;4.67;4.00;;;;;-143.90;93.69;74206.88;4915786;28;101970;-75
2023/08/31 04:42:26;;;;;;;;;3.00;3.00;;;;;-143.90;94.18;74213.06;4915500;28;102180;-74
2023/08/31 04:44:52;;;;;;;;;4.33;4.00;;;;;-143.90;94.33;74213.06;4918678;28;103064;-74
2023/08/31 04:47:19;;;;;;;;;5.00;3.67;;;;;-143.90;94.18;74200.66;4891255;28;103914;-75
2023/08/31 04:49:46;;;;;;;;;2.33;2.33;;;;;-143.90;94.40;74198.59;4905652;28;102372;-75
2023/08/31 04:52:12;;;;;;;;;3.00;3.00;;;;;-143.90;94.15;74198.59;4915801;28;102117;-74
2023/08/31 04:54:39;;;;;;;;;2.00;1.33;;;;;-143.90;94.19;74192.41;4913100;28;102354;-74
2023/08/31 04:57:07;;;;;;;;;2.33;2.00;;;;;-143.90;94.35;74192.41;4916947;28;104274;-75
2023/08/31 04:59:34;;;;;;;;;5.00;4.00;;;;;-143.90;94.30;74186.19;4905640;28;101933;-75
2023/08/31 05:02:00;;;;;;;;;4.00;3.75;;;;;-143.90;93.95;74177.94;4912897;28;102301;-75
2023/08/31 05:04:28;;;;;;;;;5.00;4.00;;;;;-143.90;94.09;74171.72;4915799;28;102226;-74
2023/08/31 05:06:55;;;;;;;;;5.00;4.00;;;;;-143.90;94.17;74161.38;4910211;28;104117;-75
2023/08/31 05:09:24;;;;;;;;;3.00;2.00;;;;;-143.90;93.65;74157.25;4894973;28;102967;-75
2023/08/31 05:11:51;;;;;;;;;2.67;2.67;;;;;-143.90;93.03;74159.31;4898335;28;101843;-74
2023/08/31 05:14:17;;;;;;;;;2.67;2.33;;;;;-143.90;92.63;74165.53;4890559;28;102277;-74
2023/08/31 05:16:44;;;;;;;;;4.00;4.00;;;;;-143.90;92.95;74151.06;4898697;28;104055;-74
2023/08/31 05:19:11;;;;;;;;;4.00;4.00;;;;;-143.90;92.15;74155.19;4911470;28;102195;-76
2023/08/31 05:21:38;;;;;;;;;7.67;5.00;;;;;-143.90;92.11;74140.72;4915567;28;102276;-74
2023/08/31 05:24:05;;;;;;;;;5.33;5.33;;;;;-143.90;91.96;74149.00;4918400;28;102457;-75
2023/08/31 05:26:32;;;;;;;;;3.00;3.00;;;;;-143.90;92.09;74118.00;4913824;28;112954;-75
2023/08/31 05:28:58;;;;;;;;;6.00;5.67;;;;;-143.90;91.53;74122.13;4915611;28;102233;-75
2023/08/31 05:31:25;;;;;;;;;4.00;4.00;;;;;-143.90;90.91;74105.59;4898909;28;102942;-74
2023/08/31 05:33:52;;;;;;;;;2.00;2.00;;;;;-143.90;89.95;74093.19;4917044;28;101948;-75
2023/08/31 05:36:19;;;;;;;;;6.00;4.33;;;;;-143.90;89.49;74068.38;4896737;28;103538;-75
2023/08/31 05:38:45;;;;;;;;;4.00;4.00;;;;;-143.90;88.03;74039.44;4901799;28;101898;-75
2023/08/31 05:41:12;;;;;;;;;3.00;3.00;;;;;-143.90;86.64;74024.97;4920112;28;101919;-75
2023/08/31 05:43:41;;;;;;;;;4.67;4.00;;;;;-143.90;86.59;74018.78;4904616;28;101978;-75
2023/08/31 05:46:08;;;;;;;;;3.00;3.00;;;;;-143.90;85.98;74014.66;4917478;28;108721;-75
2023/08/31 05:48:39;;;;;;;;;3.33;3.33;;;;;-143.90;85.88;74014.66;4888331;28;102326;-74
2023/08/31 05:51:05;;;;;;;;;3.00;3.00;;;;;-143.90;85.43;74016.72;4917465;28;102131;-74
2023/08/31 05:53:33;;;;;;;;;5.00;4.33;;;;;-143.90;85.57;74010.50;4906458;28;102339;-75
2023/08/31 05:56:07;;;;;;;;;3.00;2.33;;;;;-143.90;85.13;74004.31;4914153;28;104335;-76
2023/08/31 05:58:35;;;;;;;;;3.33;3.00;;;;;-143.90;84.94;74008.44;4917625;28;102370;-73
2023/08/31 06:01:04;;;;;;;;;3.67;3.00;;;;;-143.90;84.07;74008.44;4898830;28;102493;-74
2023/08/31 06:03:31;;;;;;;;;4.00;3.00;;;;;-143.90;84.04;74010.50;4921703;28;101985;-73
2023/08/31 06:05:59;;;;;;;;;3.00;3.00;;;;;-143.90;84.09;74008.44;4916623;28;102944;-74
2023/08/31 06:08:26;;;;;;;;;4.67;3.67;;;;;-143.90;83.05;74004.31;4899737;28;102488;-74
2023/08/31 06:10:52;;;;;;;;;5.00;4.67;;;;;-143.90;84.08;74008.44;4915354;28;102274;-74
2023/08/31 06:13:19;;;;;;;;;4.00;3.67;;;;;-143.90;84.20;74008.44;4916805;28;102323;-74
2023/08/31 06:15:46;;;;;;;;;2.00;2.00;;;;;-143.90;84.24;74006.38;4899044;28;103785;-74
2023/08/31 06:18:13;;;;;;;;;3.00;2.00;;;;;-143.90;84.35;74008.44;4916733;28;102061;-74
2023/08/31 06:20:40;;;;;;;;;5.67;3.00;;;;;-143.90;82.50;74022.91;4931698;28;102376;-73
2023/08/31 06:23:06;;;;;;;;;3.00;3.00;;;;;-143.90;82.98;74014.66;4917681;28;102868;-73
2023/08/31 06:25:33;;;;;;;;;3.00;3.00;;;;;-143.90;83.16;74010.50;4921198;28;104326;-74
2023/08/31 06:28:00;;;;;;;;;2.33;2.33;;;;;-143.90;83.02;74010.50;4923771;28;101917;-73
2023/08/31 06:30:26;;;;;;;;;4.00;3.00;;;;;-143.90;83.35;74002.25;4913602;28;101863;-74
2023/08/31 06:32:53;;;;;;;;;3.33;3.00;;;;;-143.90;82.97;74014.66;4925043;28;103478;-75
2023/08/31 06:35:20;;;;;;;;;1.67;1.00;;;;;-143.90;82.52;74006.38;4919997;28;104263;-74
2023/08/31 06:37:47;;;;;;;;;2.67;2.00;;;;;-143.90;82.57;74010.50;4921480;28;102003;-74
2023/08/31 06:40:14;;;;;;;;;3.00;3.00;;;;;-143.90;82.53;74010.50;4916835;28;102771;-74
2023/08/31 06:42:41;;;;;;;;;2.33;2.00;;;;;-143.90;81.66;74027.03;4923685;28;102174;-74
2023/08/31 06:45:08;;;;;;;;;4.00;3.33;;;;;-143.90;82.07;74029.13;4924814;28;112175;-74
2023/08/31 06:47:35;;;;;;;;;2.00;2.00;;;;;-143.90;82.76;74024.97;4918044;28;102194;-75
2023/08/31 06:50:03;;;;;;;;;3.33;3.00;;;;;-143.90;82.65;74020.84;4934483;28;102530;-73
2023/08/31 06:52:30;;;;;;;;;2.67;1.67;;;;;-143.90;82.38;74031.19;4924046;28;102041;-73
2023/08/31 06:54:58;;;;;;;;;4.33;3.33;;;;;-143.90;82.44;74035.31;4921110;28;104084;-75
2023/08/31 06:57:27;;;;;;;;;3.33;3.00;;;;;-143.90;82.30;74039.44;4920664;28;102287;-75
2023/08/31 06:59:54;;;;;;;;;2.00;2.00;;;;;-143.90;83.13;74041.50;4921672;28;101829;-74
2023/08/31 07:02:22;;;;;;;;;2.00;2.00;;;;;-143.90;82.28;74037.38;4923108;28;102169;-75
2023/08/31 07:04:51;;;;;;;;;4.00;4.00;;;;;-143.90;83.08;74047.72;4918695;28;104165;-74
2023/08/31 07:07:18;;;;;;;;;4.00;3.00;;;;;-143.90;82.46;74055.97;4932505;28;102363;-73
2023/08/31 07:09:46;;;;;;;;;2.67;2.00;;;;;-143.90;83.69;74051.84;4919596;28;103136;-74
2023/08/31 07:12:12;;;;;;;;;5.00;2.33;;;;;-143.90;83.65;74039.44;4923051;28;104212;-75
2023/08/31 07:14:39;;;;;;;;;2.33;2.00;;;;;-143.90;83.25;74020.84;4920796;28;107959;-74
2023/08/31 07:17:06;;;;;;;;;3.00;2.00;;;;;-143.90;82.74;74010.50;4917299;28;102193;-75
2023/08/31 07:19:36;;;;;;;;;2.00;2.00;;;;;-143.90;81.47;74010.50;4918552;28;101930;-73
2023/08/31 07:22:05;;;;;;;;;1.00;1.00;;;;;-143.90;81.96;74014.66;4919802;28;102394;-75
2023/08/31 07:24:34;;;;;;;;;2.00;2.00;;;;;-143.90;80.82;74024.97;4906815;28;103349;-75
2023/08/31 07:27:05;;;;;;;;;2.00;2.00;;;;;-143.90;81.06;74039.44;4914881;28;102077;-74
2023/08/31 07:29:31;;;;;;;;;3.00;3.00;;;;;-143.90;81.65;74045.66;4916449;28;102549;-75
2023/08/31 07:31:58;;;;;;;;;1.00;1.00;;;;;-143.90;82.18;74039.44;4917031;28;102220;-74
2023/08/31 07:34:25;;;;;;;;;2.00;2.00;;;;;-143.90;82.72;74037.38;4915334;28;104046;-74
2023/08/31 07:36:51;;;;;;;;;1.00;1.00;;;;;-143.90;81.97;74029.13;4914490;28;102212;-74
2023/08/31 07:39:18;;;;;;;;;1.67;1.00;;;;;-143.90;80.80;74018.78;4917014;28;102520;-75
2023/08/31 07:41:45;;;;;;;;;3.00;1.33;;;;;-143.90;81.78;74010.50;4914401;28;103230;-75
2023/08/31 07:44:11;;;;;;;;;2.67;2.00;;;;;-143.90;79.29;74002.25;4920035;28;103645;-75
2023/08/31 07:46:38;;;;;;;;;1.00;1.00;;;;;-143.90;79.01;74002.25;4915488;28;102426;-74
2023/08/31 07:49:05;;;;;;;;;1.00;1.00;;;;;-143.90;80.20;73998.13;4909721;28;102037;-72
2023/08/31 07:51:31;;;;;;;;;2.00;1.00;;;;;-143.90;77.54;73993.97;4914579;28;102430;-74
2023/08/31 07:54:00;;;;;;;;;2.00;2.00;;;;;-143.90;79.55;73989.84;4916149;28;104115;-73
2023/08/31 07:56:26;;;;;;;;;1.33;1.00;;;;;-143.90;77.57;74000.19;4894375;28;102928;-73
2023/08/31 07:58:53;;;;;;;;;1.00;1.00;;;;;-143.90;76.72;73991.91;4911204;28;102978;-73
2023/08/31 08:01:20;;;;;;;;;1.00;1.00;;;;;-143.90;77.17;73973.31;4898191;28;101930;-75
2023/08/31 08:03:47;;;;;;;;;1.00;1.00;;;;;-143.90;79.21;73948.50;4908982;28;103156;-73
2023/08/31 08:06:13;;;;;;;;;1.00;1.00;;;;;-143.90;75.98;73950.56;4916540;28;102056;-74
2023/08/31 08:08:41;;;;;;;;;1.00;1.00;;;;;-143.90;74.88;73944.38;4916501;28;102436;-75
2023/08/31 08:11:07;;;;;;;;;0.33;0.33;;;;;-143.90;76.47;73942.31;4916412;28;102377;-74
2023/08/31 08:13:34;;;;;;;;;1.00;1.00;;;;;-143.90;76.11;73931.97;4915786;28;104944;-75
2023/08/31 08:16:01;;;;;;;;;0.00;0.00;;;;;-143.90;76.73;73907.16;4915142;28;103214;-75
2023/08/31 08:18:28;;;;;;;;;0.00;0.00;;;;;-143.90;75.63;73896.84;4911660;28;101957;-74
2023/08/31 08:20:57;;;;;;;;;0.33;0.33;;;;;-143.90;74.89;73886.50;4899220;28;102003;-74
2023/08/31 08:23:23;;;;;;;;;1.00;1.00;;;;;-143.90;74.60;73869.97;4891410;28;103814;-74
2023/08/31 08:25:50;;;;;;;;;0.00;0.00;;;;;-143.90;74.41;73853.44;4893730;28;102362;-74
2023/08/31 08:28:17;;;;;;;;;0.00;0.00;;;;;-143.90;73.19;73843.09;4879803;28;102046;-73
2023/08/31 08:30:43;;;;;;;;;0.00;0.00;;;;;-143.90;72.36;73836.91;4901850;28;102360;-74
2023/08/31 08:33:10;;;;;;;;;0.00;0.00;;;;;-143.90;71.79;73826.56;4895110;28;105784;-74
2023/08/31 08:35:38;;;;;;;;;0.67;0.67;;;;;-143.90;72.24;73816.25;4892142;28;103036;-74
2023/08/31 08:38:05;;;;;;;;;3.33;3.33;;;;;-143.90;70.64;73824.50;4874244;28;107918;-74
2023/08/31 08:40:32;;;;;;;;;4.00;4.00;;;;;-143.90;69.85;73824.50;4889933;28;102396;-75
2023/08/31 08:43:06;;;;;;;;;1.00;1.00;;;;;-143.90;71.33;73812.09;4872046;28;104490;-75
2023/08/31 08:45:38;;;;;;;;;1.00;1.00;;;;;-143.90;70.60;73818.31;4890460;28;102206;-73
2023/08/31 08:48:07;;;;;;;;;2.00;1.00;;;;;-143.90;70.23;73797.63;4892236;28;105146;-74
2023/08/31 08:50:35;;;;;;;;;2.00;2.00;;;;;-143.90;69.17;73810.03;4895647;28;102090;-73
2023/08/31 08:53:03;;;;;;;;;1.67;1.67;;;;;-143.90;69.43;73801.78;4895288;28;104801;-74
2023/08/31 08:55:30;;;;;;;;;2.00;2.00;;;;;-143.90;70.49;73810.03;4894769;28;102733;-73
2023/08/31 08:57:59;;;;;;;;;1.00;1.00;;;;;-143.90;68.82;73810.03;4898556;28;102025;-74
2023/08/31 09:00:27;;;;;;;;;1.00;1.00;;;;;-143.90;69.94;73801.78;4875120;28;102161;-74
2023/08/31 09:02:55;;;;;;;;;1.33;1.33;;;;;-143.90;68.40;73801.78;4893689;28;103968;-75
2023/08/31 09:05:23;;;;;;;;;2.00;2.00;;;;;-143.90;69.26;73787.31;4898789;28;102596;-74
2023/08/31 09:08:09;;;;;;;;;1.00;1.00;;;;;-143.90;67.13;73779.03;4900187;28;102086;-75
2023/08/31 09:10:45;;;;;;;;;1.00;1.00;;;;;-143.90;66.62;73774.91;4894409;28;102459;-75
2023/08/31 09:13:15;;;;;;;;;1.67;1.33;;;;;-143.90;69.53;73750.09;4882063;28;104230;-74
2023/08/31 09:15:46;;;;;;;;;2.00;2.00;;;;;-143.90;67.25;73741.84;4895508;28;102507;-74
2023/08/31 09:18:16;;;;;;;;;1.00;1.00;;;;;-143.90;65.74;73748.03;4881998;28;102835;-74
2023/08/31 09:20:45;;;;;;;;;1.00;1.00;;;;;-143.90;65.95;73723.22;4910261;28;102146;-74
2023/08/31 09:23:13;;;;;;;;;1.00;1.00;;;;;-143.90;66.86;73696.38;4906752;28;104072;-74
2023/08/31 09:25:45;;;;;;;;;1.00;1.00;;;;;-143.90;64.11;73696.38;4911273;28;103785;-73
2023/08/31 09:28:13;;;;;;;;;0.33;0.33;;;;;-143.90;60.62;73696.38;4912086;28;102238;-75
2023/08/31 09:30:41;;;;;;;;;2.67;2.00;;;;;-143.90;61.06;73721.16;4915790;28;102015;-74
2023/08/31 09:33:09;;;;;;;;;1.00;1.00;;;;;-143.90;65.14;73700.50;4909643;28;103763;-74
2023/08/31 09:35:43;;;;;;;;;0.67;0.67;;;;;-143.90;62.64;73683.97;4915697;28;102005;-75
2023/08/31 09:38:10;;;;;;;;;1.00;1.00;;;;;-143.90;63.78;73679.84;4914565;28;102460;-74
2023/08/31 09:40:39;;;;;;;;;2.00;2.00;;;;;-143.90;60.39;73688.09;4913632;28;102484;-73
2023/08/31 09:43:06;;;;;;;;;1.00;1.00;;;;;-143.90;59.75;73692.25;4911693;28;104381;-74
2023/08/31 09:45:34;;;;;;;;;2.00;2.00;;;;;-143.90;62.02;73681.91;4913683;28;102170;-74
2023/08/31 09:48:04;;;;;;;;;2.00;1.33;;;;;-143.90;62.09;73667.44;4911623;28;102022;-74
2023/08/31 09:50:33;;;;;;;;;0.67;0.67;;;;;-143.90;63.42;73657.09;4896221;28;102468;-75
2023/08/31 09:53:04;;;;;;;;;1.00;1.00;;;;;-143.90;62.94;73648.84;4913502;28;104196;-74
2023/08/31 09:55:32;;;;;;;;;3.00;2.00;;;;;-143.90;62.32;73655.03;4915179;28;103633;-75
2023/08/31 09:58:04;;;;;;;;;1.67;1.67;;;;;-143.90;61.79;73661.25;4917185;28;105362;-74
2023/08/31 10:00:43;;;;;;;;;2.67;1.67;;;;;-143.90;59.31;73659.16;4910347;28;102399;-73
2023/08/31 10:03:14;;;;;;;;;1.67;1.67;;;;;-143.90;61.23;73655.03;4912094;28;104500;-73
2023/08/31 10:05:47;;;;;;;;;1.00;1.00;;;;;-143.90;62.05;73634.38;4906280;28;102578;-74
2023/08/31 10:08:14;;;;;;;;;1.00;1.00;;;;;-143.90;61.54;73655.03;4914262;28;103200;-74
2023/08/31 10:10:42;;;;;;;;;2.00;2.00;;;;;-143.90;63.86;73659.16;4904298;28;102174;-74
2023/08/31 10:13:10;;;;;;;;;1.67;1.67;;;;;-143.90;59.30;73655.03;4907191;28;103757;-74
2023/08/31 10:15:39;;;;;;;;;2.67;2.67;;;;;-143.90;56.61;73642.63;4907591;28;102699;-74
2023/08/31 10:18:07;;;;;;;;;2.67;2.67;;;;;-143.90;55.70;73657.09;4911812;28;103776;-75
2023/08/31 10:20:35;;;;;;;;;3.33;2.67;;;;;-143.90;58.01;73644.69;4914088;28;102034;-73
2023/08/31 10:23:05;;;;;;;;;2.00;2.00;;;;;-143.90;57.10;73642.63;4916073;28;104624;-73
2023/08/31 10:25:50;;;;;;;;;2.33;2.33;;;;;-143.90;58.33;73646.78;4913730;28;102255;-75
2023/08/31 10:28:19;;;;;;;;;1.67;1.67;;;;;-143.90;56.66;73655.03;4897941;28;102483;-74
2023/08/31 10:31:05;;;;;;;;;2.00;2.00;;;;;-143.90;56.44;73642.63;4916655;28;102046;-75
2023/08/31 10:33:45;;;;;;;;;1.67;1.33;;;;;-143.90;58.33;73636.44;4906523;28;109076;-75
2023/08/31 10:36:19;;;;;;;;;0.67;0.67;;;;;-143.90;59.43;73609.56;4910128;28;102268;-74
2023/08/31 10:38:58;;;;;;;;;1.67;1.67;;;;;-143.90;54.78;73634.38;4913492;28;102228;-74
2023/08/31 10:41:25;;;;;;;;;2.00;1.67;;;;;-143.90;56.84;73628.16;4889363;28;102119;-74
2023/08/31 10:43:53;;;;;;;;;1.33;1.33;;;;;-143.90;58.70;73617.84;4892783;28;103958;-73
2023/08/31 10:46:29;;;;;;;;;2.00;2.00;;;;;-143.90;57.39;73611.63;4919996;28;102171;-75
2023/08/31 10:49:03;;;;;;;;;3.33;3.33;;;;;-143.90;57.33;73603.38;4911463;28;103334;-73
2023/08/31 10:51:31;;;;;;;;;3.33;2.67;;;;;-143.90;58.40;73576.50;4917000;28;102007;-73
2023/08/31 10:54:13;;;;;;;;;0.67;0.67;;;;;-143.90;56.75;73541.38;4916592;28;104218;-74
2023/08/31 10:56:54;;;;;;;;;1.67;1.67;;;;;-143.90;55.60;73528.97;4917776;28;102194;-74
2023/08/31 10:59:22;;;;;;;;;1.67;1.67;;;;;-143.90;54.62;73512.44;4908454;28;101932;-74
2023/08/31 11:01:55;;;;;;;;;3.00;2.33;;;;;-143.90;53.06;73497.97;4902067;28;102419;-74
2023/08/31 11:04:23;;;;;;;;;2.33;2.33;;;;;-143.90;49.70;73493.84;4901602;28;109058;-74
2023/08/31 11:07:14;;;;;;;;;2.67;2.67;;;;;-143.90;51.29;73489.72;4918694;28;102177;-74
2023/08/31 11:09:42;;;;;;;;;2.00;2.00;;;;;-143.90;51.51;73502.09;4908238;28;102012;-73
2023/08/31 11:12:09;;;;;;;;;2.00;1.67;;;;;-143.90;52.52;73489.72;4912661;28;102014;-74
2023/08/31 11:14:36;;;;;;;;;2.00;2.00;;;;;-143.90;52.90;73483.50;4896827;28;104922;-74
2023/08/31 11:17:04;;;;;;;;;2.00;2.00;;;;;-143.90;53.81;73473.19;4914900;28;102318;-74